sensor_id;sensor_type;location;lat;lon;timestamp;P1;durP1;ratioP1;P2;durP2;ratioP2
81627;SDS011;71036;51.102;6.514;2023-07-16T00:01:32;7.03;;;1.80;;
81627;SDS011;71036;51.102;6.514;2023-07-16T00:03:57;11.03;;;1.57;;
81627;SDS011;71036;51.102;6.514;2023-07-16T00:06:22;7.73;;;2.13;;
81627;SDS011;71036;51.102;6.514;2023-07-16T00:08:47;5.47;;;1.80;;
81627;SDS011;71036;51.102;6.514;2023-07-16T00:11:13;4.03;;;1.70;;
81627;SDS011;71036;51.102;6.514;2023-07-16T00:13:38;4.40;;;1.63;;
81627;SDS011;71036;51.102;6.514;2023-07-16T00:16:03;5.27;;;1.27;;
81627;SDS011;71036;51.102;6.514;2023-07-16T00:18:29;19.73;;;2.63;;
81627;SDS011;71036;51.102;6.514;2023-07-16T00:20:54;6.60;;;1.90;;
81627;SDS011;71036;51.102;6.514;2023-07-16T00:23:20;4.60;;;1.90;;
81627;SDS011;71036;51.102;6.514;2023-07-16T00:25:45;10.60;;;2.00;;
81627;SDS011;71036;51.102;6.514;2023-07-16T00:28:10;4.70;;;2.10;;
81627;SDS011;71036;51.102;6.514;2023-07-16T00:30:36;10.30;;;1.93;;
81627;SDS011;71036;51.102;6.514;2023-07-16T00:33:02;3.93;;;1.53;;
81627;SDS011;71036;51.102;6.514;2023-07-16T00:35:27;1.77;;;1.33;;
81627;SDS011;71036;51.102;6.514;2023-07-16T00:37:52;3.67;;;1.27;;
81627;SDS011;71036;51.102;6.514;2023-07-16T00:40:18;2.60;;;1.60;;
81627;SDS011;71036;51.102;6.514;2023-07-16T00:42:43;2.20;;;1.60;;
81627;SDS011;71036;51.102;6.514;2023-07-16T00:45:09;5.57;;;1.90;;
81627;SDS011;71036;51.102;6.514;2023-07-16T00:47:41;5.23;;;1.70;;
81627;SDS011;71036;51.102;6.514;2023-07-16T00:50:07;6.07;;;1.57;;
81627;SDS011;71036;51.102;6.514;2023-07-16T00:52:34;11.53;;;1.83;;
81627;SDS011;71036;51.102;6.514;2023-07-16T00:55:00;6.40;;;2.13;;
81627;SDS011;71036;51.102;6.514;2023-07-16T00:57:25;7.60;;;1.90;;
81627;SDS011;71036;51.102;6.514;2023-07-16T00:59:51;12.80;;;2.80;;
81627;SDS011;71036;51.102;6.514;2023-07-16T01:02:16;7.00;;;1.80;;
81627;SDS011;71036;51.102;6.514;2023-07-16T01:04:41;2.80;;;1.37;;
81627;SDS011;71036;51.102;6.514;2023-07-16T01:07:08;8.30;;;1.80;;
81627;SDS011;71036;51.102;6.514;2023-07-16T01:09:36;7.83;;;2.03;;
81627;SDS011;71036;51.102;6.514;2023-07-16T01:12:06;7.53;;;1.70;;
81627;SDS011;71036;51.102;6.514;2023-07-16T01:14:32;2.50;;;1.33;;
81627;SDS011;71036;51.102;6.514;2023-07-16T01:17:02;8.40;;;2.20;;
81627;SDS011;71036;51.102;6.514;2023-07-16T01:19:28;3.83;;;1.53;;
81627;SDS011;71036;51.102;6.514;2023-07-16T01:22:40;4.80;;;1.40;;
81627;SDS011;71036;51.102;6.514;2023-07-16T01:30:31;7.23;;;2.37;;
81627;SDS011;71036;51.102;6.514;2023-07-16T01:32:57;8.53;;;1.90;;
81627;SDS011;71036;51.102;6.514;2023-07-16T01:35:23;4.23;;;1.93;;
81627;SDS011;71036;51.102;6.514;2023-07-16T01:37:50;3.80;;;1.77;;
81627;SDS011;71036;51.102;6.514;2023-07-16T01:40:15;5.73;;;2.03;;
81627;SDS011;71036;51.102;6.514;2023-07-16T01:42:41;3.27;;;1.57;;
81627;SDS011;71036;51.102;6.514;2023-07-16T01:45:06;7.00;;;2.07;;
81627;SDS011;71036;51.102;6.514;2023-07-16T01:50:23;4.43;;;1.50;;
81627;SDS011;71036;51.102;6.514;2023-07-16T01:52:48;2.90;;;1.67;;
81627;SDS011;71036;51.102;6.514;2023-07-16T01:55:13;12.13;;;2.20;;
81627;SDS011;71036;51.102;6.514;2023-07-16T01:57:39;4.33;;;1.67;;
81627;SDS011;71036;51.102;6.514;2023-07-16T02:00:04;3.20;;;1.43;;
81627;SDS011;71036;51.102;6.514;2023-07-16T02:02:30;6.70;;;1.20;;
81627;SDS011;71036;51.102;6.514;2023-07-16T02:04:55;5.17;;;1.40;;
81627;SDS011;71036;51.102;6.514;2023-07-16T02:07:20;4.70;;;1.70;;
81627;SDS011;71036;51.102;6.514;2023-07-16T02:09:46;9.27;;;1.83;;
81627;SDS011;71036;51.102;6.514;2023-07-16T02:12:11;8.80;;;1.60;;
81627;SDS011;71036;51.102;6.514;2023-07-16T02:14:36;7.73;;;2.07;;
81627;SDS011;71036;51.102;6.514;2023-07-16T02:17:01;8.60;;;2.40;;
81627;SDS011;71036;51.102;6.514;2023-07-16T02:19:27;6.83;;;1.77;;
81627;SDS011;71036;51.102;6.514;2023-07-16T02:21:52;14.40;;;1.30;;
81627;SDS011;71036;51.102;6.514;2023-07-16T02:24:17;3.50;;;1.50;;
81627;SDS011;71036;51.102;6.514;2023-07-16T02:26:42;15.83;;;1.93;;
81627;SDS011;71036;51.102;6.514;2023-07-16T02:29:08;4.60;;;1.30;;
81627;SDS011;71036;51.102;6.514;2023-07-16T02:31:33;6.50;;;1.57;;
81627;SDS011;71036;51.102;6.514;2023-07-16T02:33:59;3.50;;;1.67;;
81627;SDS011;71036;51.102;6.514;2023-07-16T02:36:24;3.43;;;1.40;;
81627;SDS011;71036;51.102;6.514;2023-07-16T02:38:50;5.03;;;1.43;;
81627;SDS011;71036;51.102;6.514;2023-07-16T02:41:15;7.03;;;1.53;;
81627;SDS011;71036;51.102;6.514;2023-07-16T02:43:40;17.17;;;1.60;;
81627;SDS011;71036;51.102;6.514;2023-07-16T02:46:05;6.30;;;1.60;;
81627;SDS011;71036;51.102;6.514;2023-07-16T02:48:31;9.70;;;1.63;;
81627;SDS011;71036;51.102;6.514;2023-07-16T02:50:56;3.33;;;1.70;;
81627;SDS011;71036;51.102;6.514;2023-07-16T02:53:21;4.00;;;1.50;;
81627;SDS011;71036;51.102;6.514;2023-07-16T02:55:46;4.80;;;1.10;;
81627;SDS011;71036;51.102;6.514;2023-07-16T02:58:12;5.57;;;1.40;;
81627;SDS011;71036;51.102;6.514;2023-07-16T03:00:37;3.53;;;1.50;;
81627;SDS011;71036;51.102;6.514;2023-07-16T03:03:02;2.70;;;1.50;;
81627;SDS011;71036;51.102;6.514;2023-07-16T03:05:28;5.83;;;1.87;;
81627;SDS011;71036;51.102;6.514;2023-07-16T03:07:53;8.43;;;1.70;;
81627;SDS011;71036;51.102;6.514;2023-07-16T03:10:19;3.17;;;1.50;;
81627;SDS011;71036;51.102;6.514;2023-07-16T03:12:45;2.70;;;1.50;;
81627;SDS011;71036;51.102;6.514;2023-07-16T03:15:10;3.87;;;1.83;;
81627;SDS011;71036;51.102;6.514;2023-07-16T03:17:36;3.87;;;2.03;;
81627;SDS011;71036;51.102;6.514;2023-07-16T03:20:01;12.67;;;1.57;;
81627;SDS011;71036;51.102;6.514;2023-07-16T03:22:29;3.53;;;1.40;;
81627;SDS011;71036;51.102;6.514;2023-07-16T03:24:54;6.13;;;2.10;;
81627;SDS011;71036;51.102;6.514;2023-07-16T03:27:19;12.30;;;1.80;;
81627;SDS011;71036;51.102;6.514;2023-07-16T03:29:44;3.67;;;1.60;;
81627;SDS011;71036;51.102;6.514;2023-07-16T03:32:10;7.03;;;2.00;;
81627;SDS011;71036;51.102;6.514;2023-07-16T03:34:35;1.50;;;1.27;;
81627;SDS011;71036;51.102;6.514;2023-07-16T03:37:00;4.40;;;1.63;;
81627;SDS011;71036;51.102;6.514;2023-07-16T03:39:25;9.40;;;1.67;;
81627;SDS011;71036;51.102;6.514;2023-07-16T03:41:51;14.10;;;2.00;;
81627;SDS011;71036;51.102;6.514;2023-07-16T03:44:16;6.87;;;2.03;;
81627;SDS011;71036;51.102;6.514;2023-07-16T03:46:41;16.20;;;2.10;;
81627;SDS011;71036;51.102;6.514;2023-07-16T03:49:07;6.50;;;1.80;;
81627;SDS011;71036;51.102;6.514;2023-07-16T03:51:33;4.40;;;1.80;;
81627;SDS011;71036;51.102;6.514;2023-07-16T03:53:58;4.70;;;1.57;;
81627;SDS011;71036;51.102;6.514;2023-07-16T03:56:24;8.03;;;2.33;;
81627;SDS011;71036;51.102;6.514;2023-07-16T03:58:49;16.97;;;2.53;;
81627;SDS011;71036;51.102;6.514;2023-07-16T04:01:14;6.23;;;1.93;;
81627;SDS011;71036;51.102;6.514;2023-07-16T04:03:39;8.80;;;2.97;;
81627;SDS011;71036;51.102;6.514;2023-07-16T04:06:05;10.17;;;2.23;;
81627;SDS011;71036;51.102;6.514;2023-07-16T04:08:34;8.67;;;2.40;;
81627;SDS011;71036;51.102;6.514;2023-07-16T04:10:59;3.63;;;1.87;;
81627;SDS011;71036;51.102;6.514;2023-07-16T04:13:24;4.10;;;1.80;;
81627;SDS011;71036;51.102;6.514;2023-07-16T04:15:49;3.60;;;1.87;;
81627;SDS011;71036;51.102;6.514;2023-07-16T04:18:15;17.03;;;2.60;;
81627;SDS011;71036;51.102;6.514;2023-07-16T04:20:40;6.07;;;2.20;;
81627;SDS011;71036;51.102;6.514;2023-07-16T04:23:05;11.10;;;2.60;;
81627;SDS011;71036;51.102;6.514;2023-07-16T04:25:31;8.13;;;2.77;;
81627;SDS011;71036;51.102;6.514;2023-07-16T04:27:56;7.57;;;2.40;;
81627;SDS011;71036;51.102;6.514;2023-07-16T04:30:21;14.27;;;2.57;;
81627;SDS011;71036;51.102;6.514;2023-07-16T04:32:47;15.27;;;2.70;;
81627;SDS011;71036;51.102;6.514;2023-07-16T04:35:12;11.83;;;2.00;;
81627;SDS011;71036;51.102;6.514;2023-07-16T04:37:37;13.03;;;2.10;;
81627;SDS011;71036;51.102;6.514;2023-07-16T04:40:02;5.67;;;2.07;;
81627;SDS011;71036;51.102;6.514;2023-07-16T04:42:29;7.00;;;2.23;;
81627;SDS011;71036;51.102;6.514;2023-07-16T04:44:54;8.47;;;1.80;;
81627;SDS011;71036;51.102;6.514;2023-07-16T04:47:20;4.97;;;2.20;;
81627;SDS011;71036;51.102;6.514;2023-07-16T04:49:45;8.30;;;2.40;;
81627;SDS011;71036;51.102;6.514;2023-07-16T04:52:10;4.97;;;2.13;;
81627;SDS011;71036;51.102;6.514;2023-07-16T04:54:36;12.17;;;2.80;;
81627;SDS011;71036;51.102;6.514;2023-07-16T04:57:02;11.10;;;2.60;;
81627;SDS011;71036;51.102;6.514;2023-07-16T04:59:28;14.20;;;2.43;;
81627;SDS011;71036;51.102;6.514;2023-07-16T05:01:53;8.23;;;2.57;;
81627;SDS011;71036;51.102;6.514;2023-07-16T05:04:18;12.90;;;3.20;;
81627;SDS011;71036;51.102;6.514;2023-07-16T05:06:44;11.73;;;2.43;;
81627;SDS011;71036;51.102;6.514;2023-07-16T05:09:09;13.50;;;3.10;;
81627;SDS011;71036;51.102;6.514;2023-07-16T05:11:34;8.00;;;2.80;;
81627;SDS011;71036;51.102;6.514;2023-07-16T05:13:59;7.07;;;2.50;;
81627;SDS011;71036;51.102;6.514;2023-07-16T05:16:25;16.57;;;2.30;;
81627;SDS011;71036;51.102;6.514;2023-07-16T05:18:50;14.37;;;3.73;;
81627;SDS011;71036;51.102;6.514;2023-07-16T05:21:15;5.03;;;2.57;;
81627;SDS011;71036;51.102;6.514;2023-07-16T05:23:40;11.73;;;4.33;;
81627;SDS011;71036;51.102;6.514;2023-07-16T05:26:06;14.20;;;3.30;;
81627;SDS011;71036;51.102;6.514;2023-07-16T05:28:31;11.80;;;3.03;;
81627;SDS011;71036;51.102;6.514;2023-07-16T05:30:57;9.63;;;3.13;;
81627;SDS011;71036;51.102;6.514;2023-07-16T05:33:26;12.83;;;3.50;;
81627;SDS011;71036;51.102;6.514;2023-07-16T05:35:51;11.63;;;3.90;;
81627;SDS011;71036;51.102;6.514;2023-07-16T05:38:16;8.40;;;2.70;;
81627;SDS011;71036;51.102;6.514;2023-07-16T05:40:41;11.03;;;3.40;;
81627;SDS011;71036;51.102;6.514;2023-07-16T05:43:07;14.60;;;3.47;;
81627;SDS011;71036;51.102;6.514;2023-07-16T05:45:32;8.13;;;3.20;;
81627;SDS011;71036;51.102;6.514;2023-07-16T05:47:57;10.47;;;3.73;;
81627;SDS011;71036;51.102;6.514;2023-07-16T05:50:22;12.43;;;3.53;;
81627;SDS011;71036;51.102;6.514;2023-07-16T05:52:48;15.13;;;3.40;;
81627;SDS011;71036;51.102;6.514;2023-07-16T05:55:13;10.63;;;3.17;;
81627;SDS011;71036;51.102;6.514;2023-07-16T05:57:39;11.87;;;3.70;;
81627;SDS011;71036;51.102;6.514;2023-07-16T06:00:05;11.87;;;3.07;;
81627;SDS011;71036;51.102;6.514;2023-07-16T06:02:31;14.37;;;3.73;;
81627;SDS011;71036;51.102;6.514;2023-07-16T06:04:57;9.37;;;4.00;;
81627;SDS011;71036;51.102;6.514;2023-07-16T06:07:22;15.67;;;4.70;;
81627;SDS011;71036;51.102;6.514;2023-07-16T06:09:47;5.43;;;2.97;;
81627;SDS011;71036;51.102;6.514;2023-07-16T06:12:13;16.00;;;3.80;;
81627;SDS011;71036;51.102;6.514;2023-07-16T06:14:39;9.37;;;3.60;;
81627;SDS011;71036;51.102;6.514;2023-07-16T06:17:04;9.37;;;3.83;;
81627;SDS011;71036;51.102;6.514;2023-07-16T06:19:30;16.47;;;3.77;;
81627;SDS011;71036;51.102;6.514;2023-07-16T06:21:55;21.10;;;4.20;;
81627;SDS011;71036;51.102;6.514;2023-07-16T06:24:20;9.53;;;4.10;;
81627;SDS011;71036;51.102;6.514;2023-07-16T06:26:45;17.40;;;4.20;;
81627;SDS011;71036;51.102;6.514;2023-07-16T06:29:12;13.87;;;4.00;;
81627;SDS011;71036;51.102;6.514;2023-07-16T06:31:38;9.90;;;3.63;;
81627;SDS011;71036;51.102;6.514;2023-07-16T06:34:03;15.70;;;4.40;;
81627;SDS011;71036;51.102;6.514;2023-07-16T06:36:28;17.53;;;4.90;;
81627;SDS011;71036;51.102;6.514;2023-07-16T06:38:54;16.30;;;3.57;;
81627;SDS011;71036;51.102;6.514;2023-07-16T06:41:19;11.33;;;4.20;;
81627;SDS011;71036;51.102;6.514;2023-07-16T06:43:44;16.67;;;4.37;;
81627;SDS011;71036;51.102;6.514;2023-07-16T06:46:09;9.90;;;4.47;;
81627;SDS011;71036;51.102;6.514;2023-07-16T06:48:35;14.40;;;4.47;;
81627;SDS011;71036;51.102;6.514;2023-07-16T06:51:00;23.93;;;4.87;;
81627;SDS011;71036;51.102;6.514;2023-07-16T06:53:25;11.70;;;4.37;;
81627;SDS011;71036;51.102;6.514;2023-07-16T06:55:51;29.93;;;4.80;;
81627;SDS011;71036;51.102;6.514;2023-07-16T06:58:16;13.07;;;4.40;;
81627;SDS011;71036;51.102;6.514;2023-07-16T07:00:41;15.07;;;3.80;;
81627;SDS011;71036;51.102;6.514;2023-07-16T07:03:07;12.50;;;4.00;;
81627;SDS011;71036;51.102;6.514;2023-07-16T07:05:32;20.23;;;4.80;;
81627;SDS011;71036;51.102;6.514;2023-07-16T07:07:58;18.53;;;4.37;;
81627;SDS011;71036;51.102;6.514;2023-07-16T07:10:23;10.43;;;5.03;;
81627;SDS011;71036;51.102;6.514;2023-07-16T07:12:49;11.20;;;4.47;;
81627;SDS011;71036;51.102;6.514;2023-07-16T07:15:15;15.87;;;4.00;;
81627;SDS011;71036;51.102;6.514;2023-07-16T07:17:40;10.50;;;3.87;;
81627;SDS011;71036;51.102;6.514;2023-07-16T07:20:07;10.80;;;4.03;;
81627;SDS011;71036;51.102;6.514;2023-07-16T07:22:33;13.60;;;5.00;;
81627;SDS011;71036;51.102;6.514;2023-07-16T07:24:58;22.90;;;4.00;;
81627;SDS011;71036;51.102;6.514;2023-07-16T07:27:23;11.20;;;4.40;;
81627;SDS011;71036;51.102;6.514;2023-07-16T07:29:49;11.60;;;4.40;;
81627;SDS011;71036;51.102;6.514;2023-07-16T07:32:17;19.90;;;4.37;;
81627;SDS011;71036;51.102;6.514;2023-07-16T07:34:45;22.87;;;5.10;;
81627;SDS011;71036;51.102;6.514;2023-07-16T07:37:11;15.43;;;5.90;;
81627;SDS011;71036;51.102;6.514;2023-07-16T07:39:36;8.70;;;3.43;;
81627;SDS011;71036;51.102;6.514;2023-07-16T07:42:01;9.87;;;3.80;;
81627;SDS011;71036;51.102;6.514;2023-07-16T07:44:26;10.00;;;3.97;;
81627;SDS011;71036;51.102;6.514;2023-07-16T07:46:52;20.10;;;4.67;;
81627;SDS011;71036;51.102;6.514;2023-07-16T07:49:17;7.43;;;3.60;;
81627;SDS011;71036;51.102;6.514;2023-07-16T07:51:42;12.10;;;4.00;;
81627;SDS011;71036;51.102;6.514;2023-07-16T07:54:07;16.00;;;4.57;;
81627;SDS011;71036;51.102;6.514;2023-07-16T07:56:33;15.33;;;5.17;;
81627;SDS011;71036;51.102;6.514;2023-07-16T07:58:58;6.83;;;3.57;;
81627;SDS011;71036;51.102;6.514;2023-07-16T08:01:23;9.80;;;3.70;;
81627;SDS011;71036;51.102;6.514;2023-07-16T08:03:48;17.53;;;3.80;;
81627;SDS011;71036;51.102;6.514;2023-07-16T08:06:14;14.67;;;3.40;;
81627;SDS011;71036;51.102;6.514;2023-07-16T08:08:40;7.40;;;3.07;;
81627;SDS011;71036;51.102;6.514;2023-07-16T08:11:07;9.27;;;3.37;;
81627;SDS011;71036;51.102;6.514;2023-07-16T08:13:32;12.87;;;4.57;;
81627;SDS011;71036;51.102;6.514;2023-07-16T08:15:57;10.70;;;4.33;;
81627;SDS011;71036;51.102;6.514;2023-07-16T08:18:22;15.17;;;4.40;;
81627;SDS011;71036;51.102;6.514;2023-07-16T08:20:48;14.00;;;3.50;;
81627;SDS011;71036;51.102;6.514;2023-07-16T08:23:13;8.80;;;3.03;;
81627;SDS011;71036;51.102;6.514;2023-07-16T08:25:38;17.60;;;3.43;;
81627;SDS011;71036;51.102;6.514;2023-07-16T08:28:04;17.00;;;4.10;;
81627;SDS011;71036;51.102;6.514;2023-07-16T08:30:29;15.40;;;3.80;;
81627;SDS011;71036;51.102;6.514;2023-07-16T08:32:54;14.30;;;3.90;;
81627;SDS011;71036;51.102;6.514;2023-07-16T08:35:20;11.90;;;3.80;;
81627;SDS011;71036;51.102;6.514;2023-07-16T08:37:45;30.83;;;3.70;;
81627;SDS011;71036;51.102;6.514;2023-07-16T08:40:11;14.87;;;4.60;;
81627;SDS011;71036;51.102;6.514;2023-07-16T08:42:38;17.53;;;4.00;;
81627;SDS011;71036;51.102;6.514;2023-07-16T08:45:06;16.87;;;4.37;;
81627;SDS011;71036;51.102;6.514;2023-07-16T08:47:32;17.63;;;3.97;;
81627;SDS011;71036;51.102;6.514;2023-07-16T08:49:59;10.77;;;3.50;;
81627;SDS011;71036;51.102;6.514;2023-07-16T08:52:26;26.10;;;4.13;;
81627;SDS011;71036;51.102;6.514;2023-07-16T08:54:52;19.23;;;5.60;;
81627;SDS011;71036;51.102;6.514;2023-07-16T08:57:17;14.70;;;3.77;;
81627;SDS011;71036;51.102;6.514;2023-07-16T08:59:44;21.17;;;4.40;;
81627;SDS011;71036;51.102;6.514;2023-07-16T09:02:12;16.27;;;3.43;;
81627;SDS011;71036;51.102;6.514;2023-07-16T09:04:38;13.60;;;3.37;;
81627;SDS011;71036;51.102;6.514;2023-07-16T09:07:04;14.30;;;4.47;;
81627;SDS011;71036;51.102;6.514;2023-07-16T09:09:29;13.13;;;3.57;;
81627;SDS011;71036;51.102;6.514;2023-07-16T09:11:55;10.73;;;3.70;;
81627;SDS011;71036;51.102;6.514;2023-07-16T09:14:20;5.23;;;3.17;;
81627;SDS011;71036;51.102;6.514;2023-07-16T09:16:49;14.43;;;3.17;;
81627;SDS011;71036;51.102;6.514;2023-07-16T09:19:15;9.53;;;3.57;;
81627;SDS011;71036;51.102;6.514;2023-07-16T09:21:45;26.10;;;4.23;;
81627;SDS011;71036;51.102;6.514;2023-07-16T09:24:11;13.20;;;3.10;;
81627;SDS011;71036;51.102;6.514;2023-07-16T09:26:37;12.60;;;3.50;;
81627;SDS011;71036;51.102;6.514;2023-07-16T09:29:05;12.97;;;3.67;;
81627;SDS011;71036;51.102;6.514;2023-07-16T09:31:32;9.30;;;3.60;;
81627;SDS011;71036;51.102;6.514;2023-07-16T09:33:57;8.33;;;3.10;;
81627;SDS011;71036;51.102;6.514;2023-07-16T09:36:26;19.77;;;3.60;;
81627;SDS011;71036;51.102;6.514;2023-07-16T09:38:54;9.53;;;3.70;;
81627;SDS011;71036;51.102;6.514;2023-07-16T09:41:22;18.87;;;3.47;;
81627;SDS011;71036;51.102;6.514;2023-07-16T09:43:48;15.40;;;3.73;;
81627;SDS011;71036;51.102;6.514;2023-07-16T09:46:13;7.27;;;3.23;;
81627;SDS011;71036;51.102;6.514;2023-07-16T09:48:39;7.93;;;3.90;;
81627;SDS011;71036;51.102;6.514;2023-07-16T09:51:04;10.20;;;3.60;;
81627;SDS011;71036;51.102;6.514;2023-07-16T09:53:32;5.97;;;2.90;;
81627;SDS011;71036;51.102;6.514;2023-07-16T09:55:57;15.13;;;3.70;;
81627;SDS011;71036;51.102;6.514;2023-07-16T09:58:24;19.63;;;3.30;;
81627;SDS011;71036;51.102;6.514;2023-07-16T10:00:50;7.90;;;3.10;;
81627;SDS011;71036;51.102;6.514;2023-07-16T10:03:16;12.43;;;3.07;;
81627;SDS011;71036;51.102;6.514;2023-07-16T10:05:42;11.40;;;3.23;;
81627;SDS011;71036;51.102;6.514;2023-07-16T10:08:15;8.80;;;2.90;;
81627;SDS011;71036;51.102;6.514;2023-07-16T10:10:42;11.40;;;3.67;;
81627;SDS011;71036;51.102;6.514;2023-07-16T10:13:18;6.53;;;2.90;;
81627;SDS011;71036;51.102;6.514;2023-07-16T10:15:59;14.23;;;3.30;;
81627;SDS011;71036;51.102;6.514;2023-07-16T10:18:25;19.10;;;3.30;;
81627;SDS011;71036;51.102;6.514;2023-07-16T10:20:52;11.47;;;3.10;;
81627;SDS011;71036;51.102;6.514;2023-07-16T10:23:18;13.90;;;3.30;;
81627;SDS011;71036;51.102;6.514;2023-07-16T10:25:59;11.37;;;3.17;;
81627;SDS011;71036;51.102;6.514;2023-07-16T10:28:32;14.27;;;3.77;;
81627;SDS011;71036;51.102;6.514;2023-07-16T10:30:58;10.33;;;3.73;;
81627;SDS011;71036;51.102;6.514;2023-07-16T10:33:23;15.70;;;3.50;;
81627;SDS011;71036;51.102;6.514;2023-07-16T10:35:49;15.03;;;5.50;;
81627;SDS011;71036;51.102;6.514;2023-07-16T10:38:14;6.40;;;2.37;;
81627;SDS011;71036;51.102;6.514;2023-07-16T10:40:40;26.57;;;3.10;;
81627;SDS011;71036;51.102;6.514;2023-07-16T10:43:06;13.00;;;3.93;;
81627;SDS011;71036;51.102;6.514;2023-07-16T10:45:32;12.77;;;3.03;;
81627;SDS011;71036;51.102;6.514;2023-07-16T10:47:57;23.13;;;3.53;;
81627;SDS011;71036;51.102;6.514;2023-07-16T10:50:23;10.87;;;3.00;;
81627;SDS011;71036;51.102;6.514;2023-07-16T10:52:56;14.03;;;3.53;;
81627;SDS011;71036;51.102;6.514;2023-07-16T10:55:22;11.90;;;3.03;;
81627;SDS011;71036;51.102;6.514;2023-07-16T10:57:49;5.33;;;2.47;;
81627;SDS011;71036;51.102;6.514;2023-07-16T11:00:15;17.17;;;2.73;;
81627;SDS011;71036;51.102;6.514;2023-07-16T11:02:42;12.40;;;3.50;;
81627;SDS011;71036;51.102;6.514;2023-07-16T11:05:11;8.03;;;2.80;;
81627;SDS011;71036;51.102;6.514;2023-07-16T11:07:43;16.13;;;3.30;;
81627;SDS011;71036;51.102;6.514;2023-07-16T11:10:09;8.20;;;3.00;;
81627;SDS011;71036;51.102;6.514;2023-07-16T11:12:35;9.60;;;3.13;;
81627;SDS011;71036;51.102;6.514;2023-07-16T11:15:00;8.33;;;2.63;;
81627;SDS011;71036;51.102;6.514;2023-07-16T11:17:25;7.27;;;2.70;;
81627;SDS011;71036;51.102;6.514;2023-07-16T11:19:52;6.00;;;2.53;;
81627;SDS011;71036;51.102;6.514;2023-07-16T11:22:19;9.23;;;2.30;;
81627;SDS011;71036;51.102;6.514;2023-07-16T11:24:45;8.73;;;3.40;;
81627;SDS011;71036;51.102;6.514;2023-07-16T11:27:14;5.47;;;2.50;;
81627;SDS011;71036;51.102;6.514;2023-07-16T11:29:56;20.30;;;3.07;;
81627;SDS011;71036;51.102;6.514;2023-07-16T11:32:37;7.10;;;2.60;;
81627;SDS011;71036;51.102;6.514;2023-07-16T11:35:07;10.37;;;2.60;;
81627;SDS011;71036;51.102;6.514;2023-07-16T11:37:34;8.17;;;3.07;;
81627;SDS011;71036;51.102;6.514;2023-07-16T11:40:02;10.63;;;2.93;;
81627;SDS011;71036;51.102;6.514;2023-07-16T11:42:31;16.87;;;3.00;;
81627;SDS011;71036;51.102;6.514;2023-07-16T11:44:58;18.90;;;3.27;;
81627;SDS011;71036;51.102;6.514;2023-07-16T11:47:24;15.73;;;3.60;;
81627;SDS011;71036;51.102;6.514;2023-07-16T11:49:50;9.10;;;2.77;;
81627;SDS011;71036;51.102;6.514;2023-07-16T11:52:26;5.43;;;2.70;;
81627;SDS011;71036;51.102;6.514;2023-07-16T11:54:52;15.13;;;3.03;;
81627;SDS011;71036;51.102;6.514;2023-07-16T11:57:18;15.47;;;2.87;;
81627;SDS011;71036;51.102;6.514;2023-07-16T11:59:44;6.13;;;3.60;;
81627;SDS011;71036;51.102;6.514;2023-07-16T12:02:09;5.73;;;3.03;;
81627;SDS011;71036;51.102;6.514;2023-07-16T12:04:34;9.80;;;3.33;;
81627;SDS011;71036;51.102;6.514;2023-07-16T12:07:00;22.27;;;5.20;;
81627;SDS011;71036;51.102;6.514;2023-07-16T12:09:25;9.00;;;3.00;;
81627;SDS011;71036;51.102;6.514;2023-07-16T12:11:50;8.13;;;3.13;;
81627;SDS011;71036;51.102;6.514;2023-07-16T12:14:16;11.90;;;3.00;;
81627;SDS011;71036;51.102;6.514;2023-07-16T12:16:41;9.53;;;3.30;;
81627;SDS011;71036;51.102;6.514;2023-07-16T12:19:08;5.30;;;2.23;;
81627;SDS011;71036;51.102;6.514;2023-07-16T12:21:34;6.93;;;2.93;;
81627;SDS011;71036;51.102;6.514;2023-07-16T12:23:59;13.73;;;3.30;;
81627;SDS011;71036;51.102;6.514;2023-07-16T12:26:25;4.67;;;2.50;;
81627;SDS011;71036;51.102;6.514;2023-07-16T12:28:50;15.60;;;3.93;;
81627;SDS011;71036;51.102;6.514;2023-07-16T12:31:15;18.00;;;3.27;;
81627;SDS011;71036;51.102;6.514;2023-07-16T12:33:42;13.53;;;4.57;;
81627;SDS011;71036;51.102;6.514;2023-07-16T12:36:07;6.07;;;2.67;;
81627;SDS011;71036;51.102;6.514;2023-07-16T12:38:32;15.17;;;3.40;;
81627;SDS011;71036;51.102;6.514;2023-07-16T12:40:58;14.47;;;3.47;;
81627;SDS011;71036;51.102;6.514;2023-07-16T12:43:23;4.63;;;2.40;;
81627;SDS011;71036;51.102;6.514;2023-07-16T12:45:48;8.13;;;2.80;;
81627;SDS011;71036;51.102;6.514;2023-07-16T12:48:14;11.53;;;3.20;;
81627;SDS011;71036;51.102;6.514;2023-07-16T12:50:39;10.93;;;3.23;;
81627;SDS011;71036;51.102;6.514;2023-07-16T12:53:04;10.23;;;2.70;;
81627;SDS011;71036;51.102;6.514;2023-07-16T12:55:29;6.30;;;2.43;;
81627;SDS011;71036;51.102;6.514;2023-07-16T12:57:56;8.33;;;3.30;;
81627;SDS011;71036;51.102;6.514;2023-07-16T13:00:21;8.13;;;3.30;;
81627;SDS011;71036;51.102;6.514;2023-07-16T13:02:47;13.10;;;2.83;;
81627;SDS011;71036;51.102;6.514;2023-07-16T13:05:12;15.03;;;3.97;;
81627;SDS011;71036;51.102;6.514;2023-07-16T13:07:37;10.37;;;2.73;;
81627;SDS011;71036;51.102;6.514;2023-07-16T13:10:03;3.70;;;2.50;;
81627;SDS011;71036;51.102;6.514;2023-07-16T13:12:29;14.10;;;3.00;;
81627;SDS011;71036;51.102;6.514;2023-07-16T13:14:54;7.57;;;2.67;;
81627;SDS011;71036;51.102;6.514;2023-07-16T13:17:19;17.40;;;2.97;;
81627;SDS011;71036;51.102;6.514;2023-07-16T13:19:45;14.03;;;2.37;;
81627;SDS011;71036;51.102;6.514;2023-07-16T13:22:10;7.30;;;2.83;;
81627;SDS011;71036;51.102;6.514;2023-07-16T13:24:36;15.33;;;2.30;;
81627;SDS011;71036;51.102;6.514;2023-07-16T13:27:01;7.83;;;2.50;;
81627;SDS011;71036;51.102;6.514;2023-07-16T13:29:27;5.03;;;1.70;;
81627;SDS011;71036;51.102;6.514;2023-07-16T13:31:53;13.80;;;2.83;;
81627;SDS011;71036;51.102;6.514;2023-07-16T13:34:18;10.30;;;2.10;;
81627;SDS011;71036;51.102;6.514;2023-07-16T13:36:43;11.53;;;2.27;;
81627;SDS011;71036;51.102;6.514;2023-07-16T13:39:08;3.10;;;1.97;;
81627;SDS011;71036;51.102;6.514;2023-07-16T13:41:34;6.40;;;2.27;;
81627;SDS011;71036;51.102;6.514;2023-07-16T13:44:00;3.43;;;2.10;;
81627;SDS011;71036;51.102;6.514;2023-07-16T13:46:25;4.90;;;2.03;;
81627;SDS011;71036;51.102;6.514;2023-07-16T13:48:50;6.40;;;2.90;;
81627;SDS011;71036;51.102;6.514;2023-07-16T13:51:15;4.03;;;2.07;;
81627;SDS011;71036;51.102;6.514;2023-07-16T13:53:41;5.87;;;1.90;;
81627;SDS011;71036;51.102;6.514;2023-07-16T13:56:06;5.83;;;2.23;;
81627;SDS011;71036;51.102;6.514;2023-07-16T13:58:33;9.87;;;2.30;;
81627;SDS011;71036;51.102;6.514;2023-07-16T14:00:58;8.47;;;2.53;;
81627;SDS011;71036;51.102;6.514;2023-07-16T14:03:24;9.47;;;2.90;;
81627;SDS011;71036;51.102;6.514;2023-07-16T14:05:49;7.50;;;2.37;;
81627;SDS011;71036;51.102;6.514;2023-07-16T14:08:14;9.03;;;2.30;;
81627;SDS011;71036;51.102;6.514;2023-07-16T14:10:39;3.97;;;2.00;;
81627;SDS011;71036;51.102;6.514;2023-07-16T14:13:05;3.33;;;2.00;;
81627;SDS011;71036;51.102;6.514;2023-07-16T14:15:30;9.70;;;1.63;;
81627;SDS011;71036;51.102;6.514;2023-07-16T14:17:55;7.50;;;2.03;;
81627;SDS011;71036;51.102;6.514;2023-07-16T14:20:20;2.80;;;1.93;;
81627;SDS011;71036;51.102;6.514;2023-07-16T14:22:46;6.47;;;2.10;;
81627;SDS011;71036;51.102;6.514;2023-07-16T14:25:11;4.43;;;2.20;;
81627;SDS011;71036;51.102;6.514;2023-07-16T14:27:36;5.73;;;2.27;;
81627;SDS011;71036;51.102;6.514;2023-07-16T14:30:01;7.60;;;2.57;;
81627;SDS011;71036;51.102;6.514;2023-07-16T14:32:27;7.73;;;1.90;;
81627;SDS011;71036;51.102;6.514;2023-07-16T14:34:53;8.80;;;2.47;;
81627;SDS011;71036;51.102;6.514;2023-07-16T14:37:19;9.13;;;2.20;;
81627;SDS011;71036;51.102;6.514;2023-07-16T14:39:44;9.57;;;2.47;;
81627;SDS011;71036;51.102;6.514;2023-07-16T14:42:09;6.40;;;2.60;;